createdAt,value
2022-08-01T00:00:09.166Z,8.00
2022-08-01T00:02:40.444Z,6.80
2022-08-01T00:05:09.379Z,6.90
2022-08-01T00:07:36.530Z,7.63
2022-08-01T00:10:05.681Z,7.63
2022-08-01T00:12:32.533Z,7.43
2022-08-01T00:14:59.190Z,8.60
2022-08-01T00:17:25.888Z,8.43
2022-08-01T00:19:52.593Z,7.35
2022-08-01T00:22:19.430Z,6.57
2022-08-01T00:24:46.060Z,6.53
2022-08-01T00:27:12.674Z,7.13
2022-08-01T00:30:12.078Z,7.57
2022-08-01T00:32:26.444Z,7.13
2022-08-01T00:34:53.156Z,8.30
2022-08-01T00:37:19.728Z,6.10
2022-08-01T00:39:46.393Z,8.13
2022-08-01T00:42:13.663Z,7.95
2022-08-01T00:44:41.497Z,6.78
2022-08-01T00:47:10.378Z,7.20
2022-08-01T00:49:37.149Z,6.45
2022-08-01T00:52:06.520Z,7.72
2022-08-01T00:54:33.813Z,6.95
2022-08-01T00:57:01.052Z,6.68
2022-08-01T00:59:27.926Z,8.63
2022-08-01T01:01:55.929Z,7.07
2022-08-01T01:04:23.276Z,6.72
2022-08-01T01:07:06.752Z,7.50
2022-08-01T01:09:43.784Z,6.53
2022-08-01T01:12:30.679Z,6.45
2022-08-01T01:15:11.790Z,7.00
2022-08-01T01:17:57.063Z,6.72
2022-08-01T01:20:28.512Z,6.95
2022-08-01T01:26:03.505Z,6.60
2022-08-01T01:28:53.099Z,7.10
2022-08-01T01:31:22.534Z,7.55
2022-08-01T01:33:50.694Z,8.15
2022-08-01T01:36:20.417Z,6.10
2022-08-01T01:38:49.107Z,7.05
2022-08-01T01:41:18.541Z,6.28
2022-08-01T01:43:47.112Z,6.57
2022-08-01T01:46:17.846Z,6.60
2022-08-01T01:48:47.534Z,7.43
2022-08-01T01:51:16.276Z,7.68
2022-08-01T01:53:44.555Z,7.40
2022-08-01T01:56:12.742Z,8.15
2022-08-01T01:58:40.349Z,6.60
2022-08-01T02:01:12.444Z,6.05
2022-08-01T02:03:44.089Z,8.10
2022-08-01T02:06:14.413Z,6.72
2022-08-01T02:08:42.749Z,6.55
2022-08-01T02:11:22.427Z,6.05
2022-08-01T02:14:03.872Z,6.90
2022-08-01T02:16:35.460Z,6.75
2022-08-01T02:19:03.726Z,7.15
2022-08-01T02:21:39.735Z,6.88
2022-08-01T02:24:41.868Z,7.68
2022-08-01T02:27:18.525Z,6.80
2022-08-01T02:29:54.234Z,7.35
2022-08-01T02:32:26.682Z,8.13
2022-08-01T02:34:57.418Z,8.18
2022-08-01T02:37:27.802Z,7.00
2022-08-01T02:39:55.803Z,8.30
2022-08-01T02:42:25.390Z,6.15
2022-08-01T02:44:54.950Z,7.10
2022-08-01T02:47:24.324Z,7.22
2022-08-01T02:49:54.012Z,7.03
2022-08-01T02:52:24.168Z,7.32
2022-08-01T02:54:54.498Z,7.25
2022-08-01T02:57:22.687Z,7.13
2022-08-01T02:59:54.959Z,6.43
2022-08-01T03:02:25.177Z,6.82
2022-08-01T03:04:57.091Z,6.80
2022-08-01T03:07:25.071Z,7.13
2022-08-01T03:10:03.057Z,7.15
2022-08-01T03:12:34.146Z,7.82
2022-08-01T03:15:03.453Z,6.78
2022-08-01T03:17:31.568Z,7.03
2022-08-01T03:20:00.134Z,7.97
2022-08-01T03:22:28.953Z,6.80
2022-08-01T03:24:58.752Z,7.82
2022-08-01T03:27:26.271Z,7.10
2022-08-01T03:29:56.110Z,8.43
2022-08-01T03:32:23.317Z,7.40
2022-08-01T03:34:50.371Z,7.97
2022-08-01T03:37:29.077Z,8.77
2022-08-01T03:40:06.055Z,8.60
2022-08-01T03:42:37.645Z,7.63
2022-08-01T03:47:45.030Z,7.00
2022-08-01T03:50:14.631Z,7.38
2022-08-01T03:52:44.614Z,7.47
2022-08-01T03:55:12.960Z,8.02
2022-08-01T03:57:40.320Z,7.65
2022-08-01T04:00:09.978Z,7.40
2022-08-01T04:02:37.994Z,7.57
2022-08-01T04:05:05.594Z,7.20
2022-08-01T04:07:36.834Z,6.97
2022-08-01T04:10:04.595Z,7.93
2022-08-01T04:12:31.474Z,7.72
2022-08-01T04:14:58.086Z,7.10
2022-08-01T04:17:24.683Z,8.27
2022-08-01T04:19:51.630Z,7.82
2022-08-01T04:22:18.309Z,7.13
2022-08-01T04:24:56.441Z,9.02
2022-08-01T04:27:50.477Z,7.55
2022-08-01T04:30:20.798Z,7.47
2022-08-01T04:32:48.998Z,7.22
2022-08-01T04:35:23.171Z,9.93
2022-08-01T04:38:07.235Z,7.85
2022-08-01T04:40:37.157Z,7.20
2022-08-01T04:43:04.567Z,7.88
2022-08-01T04:45:33.687Z,7.50
2022-08-01T04:48:00.985Z,6.53
2022-08-01T04:50:28.819Z,7.05
2022-08-01T04:52:55.606Z,6.85
2022-08-01T04:55:22.208Z,7.72
2022-08-01T04:57:49.121Z,7.60
2022-08-01T05:00:17.629Z,6.88
2022-08-01T05:02:44.632Z,6.47
2022-08-01T05:05:11.545Z,6.70
2022-08-01T05:07:43.045Z,8.18
2022-08-01T05:10:12.114Z,7.40
2022-08-01T05:12:38.716Z,6.43
2022-08-01T05:15:06.055Z,6.47
2022-08-01T05:17:32.761Z,6.80
2022-08-01T05:19:59.467Z,7.50
2022-08-01T05:22:26.695Z,6.25
2022-08-01T05:24:53.810Z,7.35
2022-08-01T05:27:20.765Z,7.57
2022-08-01T05:29:48.196Z,8.18
2022-08-01T05:32:14.970Z,7.43
2022-08-01T05:34:41.615Z,6.53
2022-08-01T05:37:08.596Z,6.78
2022-08-01T05:39:35.291Z,6.45
2022-08-01T05:42:01.929Z,6.93
2022-08-01T05:44:28.701Z,8.00
2022-08-01T05:46:55.443Z,6.90
2022-08-01T05:49:22.199Z,7.32
2022-08-01T05:51:48.949Z,5.55
2022-08-01T05:54:15.777Z,6.85
2022-08-01T05:56:42.671Z,7.82
2022-08-01T05:59:09.279Z,6.07
2022-08-01T06:01:36.036Z,7.22
2022-08-01T06:04:02.690Z,5.47
2022-08-01T06:06:29.365Z,5.38
2022-08-01T06:08:55.965Z,6.13
2022-08-01T06:11:22.640Z,5.82
2022-08-01T06:13:49.384Z,6.85
2022-08-01T06:16:16.793Z,7.00
2022-08-01T06:18:43.797Z,4.30
2022-08-01T06:21:10.463Z,8.50
2022-08-01T06:23:37.245Z,5.97
2022-08-01T06:26:04.160Z,5.72
2022-08-01T06:28:31.083Z,5.57
2022-08-01T06:30:59.622Z,7.20
2022-08-01T06:33:27.661Z,5.88
2022-08-01T06:35:54.429Z,7.35
2022-08-01T06:38:21.121Z,9.02
2022-08-01T06:40:47.941Z,6.18
2022-08-01T06:43:14.608Z,6.60
2022-08-01T06:45:41.266Z,6.47
2022-08-01T06:48:07.989Z,5.65
2022-08-01T06:50:36.818Z,6.50
2022-08-01T06:53:04.094Z,5.40
2022-08-01T06:55:30.894Z,4.82
2022-08-01T06:57:57.711Z,5.97
2022-08-01T07:00:25.591Z,7.15
2022-08-01T07:02:53.403Z,6.25
2022-08-01T07:05:20.742Z,7.85
2022-08-01T07:07:47.401Z,6.10
2022-08-01T07:10:14.222Z,6.22
2022-08-01T07:12:42.066Z,6.38
2022-08-01T07:15:09.934Z,5.57
2022-08-01T07:17:41.472Z,5.90
2022-08-01T07:20:13.916Z,6.93
2022-08-01T07:22:43.562Z,6.68
2022-08-01T07:25:12.074Z,6.57
2022-08-01T07:27:38.717Z,6.20
2022-08-01T07:30:06.605Z,6.43
2022-08-01T07:32:33.353Z,5.22
2022-08-01T07:35:00.413Z,6.60
2022-08-01T07:37:42.034Z,6.50
2022-08-01T07:40:14.902Z,6.63
2022-08-01T07:42:45.920Z,5.60
2022-08-01T07:45:13.729Z,5.95
2022-08-01T07:47:40.396Z,4.97
2022-08-01T07:50:08.119Z,6.93
2022-08-01T07:52:34.833Z,5.25
2022-08-01T07:55:01.438Z,6.65
2022-08-01T07:57:28.068Z,5.65
2022-08-01T07:59:54.694Z,7.88
2022-08-01T08:02:21.428Z,5.70
2022-08-01T08:04:49.185Z,6.47
2022-08-01T08:07:16.365Z,5.75
2022-08-01T08:09:43.042Z,7.00
2022-08-01T08:12:10.634Z,6.13
2022-08-01T08:14:37.708Z,6.25
2022-08-01T08:17:05.428Z,6.15
2022-08-01T08:19:37.720Z,6.68
2022-08-01T08:22:06.891Z,6.10
2022-08-01T08:24:33.857Z,5.18
2022-08-01T08:27:02.021Z,4.95
2022-08-01T08:29:30.990Z,6.03
2022-08-01T08:31:58.774Z,5.13
2022-08-01T08:34:27.768Z,4.50
2022-08-01T08:36:57.102Z,4.18
2022-08-01T08:39:25.638Z,5.55
2022-08-01T08:41:52.697Z,5.10
2022-08-01T08:44:21.268Z,5.38
2022-08-01T08:46:53.249Z,4.85
2022-08-01T08:49:25.462Z,4.35
2022-08-01T08:51:53.919Z,5.18
2022-08-01T08:54:31.653Z,6.45
2022-08-01T08:56:59.927Z,5.32
2022-08-01T08:59:27.362Z,5.63
2022-08-01T09:01:53.978Z,5.95
2022-08-01T09:04:23.986Z,5.57
2022-08-01T09:06:54.125Z,5.25
2022-08-01T09:09:20.807Z,4.40
2022-08-01T09:11:57.678Z,5.40
2022-08-01T09:14:30.939Z,5.90
2022-08-01T09:17:11.376Z,6.07
2022-08-01T09:19:54.916Z,4.97
2022-08-01T09:22:25.624Z,3.88
2022-08-01T09:25:10.583Z,5.47
2022-08-01T09:27:44.169Z,5.25
2022-08-01T09:30:17.294Z,4.72
2022-08-01T09:33:11.148Z,4.40
2022-08-01T09:35:46.377Z,6.30
2022-08-01T09:38:19.090Z,4.63
2022-08-01T09:40:52.597Z,5.28
2022-08-01T09:43:20.814Z,5.03
2022-08-01T09:45:49.206Z,5.15
2022-08-01T09:48:22.513Z,5.82
2022-08-01T09:50:53.343Z,5.45
2022-08-01T09:53:24.346Z,4.32
2022-08-01T09:56:10.412Z,5.60
2022-08-01T09:58:57.823Z,4.78
2022-08-01T10:01:26.406Z,4.75
2022-08-01T10:04:21.495Z,5.25
2022-08-01T10:06:53.580Z,3.80
2022-08-01T10:09:35.846Z,4.55
2022-08-01T10:12:07.778Z,5.20
2022-08-01T10:14:37.350Z,5.68
2022-08-01T10:17:05.794Z,5.32
2022-08-01T10:19:33.753Z,4.22
2022-08-01T10:22:01.875Z,2.85
2022-08-01T10:24:30.810Z,3.35
2022-08-01T10:27:12.607Z,3.55
2022-08-01T10:30:05.372Z,3.20
2022-08-01T10:32:36.667Z,5.35
2022-08-01T10:35:07.620Z,4.70
2022-08-01T10:37:52.408Z,3.83
2022-08-01T10:40:30.535Z,4.13
2022-08-01T10:42:58.148Z,4.40
2022-08-01T10:45:27.617Z,4.78
2022-08-01T10:48:08.924Z,4.15
2022-08-01T10:50:48.490Z,2.28
2022-08-01T10:53:24.191Z,3.90
2022-08-01T10:56:02.542Z,5.82
2022-08-01T11:01:23.126Z,4.20
2022-08-01T11:04:01.198Z,3.70
2022-08-01T11:06:55.475Z,5.15
2022-08-01T11:09:36.262Z,3.42
2022-08-01T11:12:23.422Z,4.60
2022-08-01T11:15:00.058Z,4.10
2022-08-01T11:17:42.516Z,5.45
2022-08-01T11:20:13.873Z,6.18
2022-08-01T11:23:03.135Z,3.85
2022-08-01T11:26:03.482Z,4.50
2022-08-01T11:28:32.187Z,2.58
2022-08-01T11:31:13.888Z,3.90
2022-08-01T11:33:45.874Z,3.30
2022-08-01T11:36:22.251Z,4.18
2022-08-01T11:39:00.631Z,4.93
2022-08-01T11:41:38.460Z,6.93
2022-08-01T11:44:30.363Z,3.63
2022-08-01T11:47:00.707Z,4.47
2022-08-01T11:49:51.814Z,2.28
2022-08-01T11:52:27.769Z,3.80
2022-08-01T11:54:58.846Z,5.15
2022-08-01T11:57:39.034Z,3.55
2022-08-01T12:00:18.050Z,5.07
2022-08-01T12:02:47.692Z,4.03
2022-08-01T12:05:19.053Z,4.03
2022-08-01T12:07:50.460Z,3.13
2022-08-01T12:10:19.341Z,5.15
2022-08-01T12:12:47.206Z,3.33
2022-08-01T12:15:14.461Z,3.20
2022-08-01T12:17:58.240Z,3.20
2022-08-01T12:20:30.400Z,4.13
2022-08-01T12:22:59.999Z,2.88
2022-08-01T12:25:27.034Z,3.15
2022-08-01T12:27:56.493Z,2.67
2022-08-01T12:30:25.379Z,3.20
2022-08-01T12:32:54.121Z,2.42
2022-08-01T12:35:24.312Z,2.20
2022-08-01T12:37:55.942Z,4.05
2022-08-01T12:40:27.977Z,2.60
2022-08-01T12:42:57.970Z,4.28
2022-08-01T12:45:56.699Z,3.72
2022-08-01T12:48:25.187Z,4.65
2022-08-01T12:50:53.586Z,4.30
2022-08-01T12:53:22.053Z,5.93
2022-08-01T12:55:58.070Z,2.78
2022-08-01T12:58:26.056Z,2.92
2022-08-01T13:01:05.005Z,5.40
2022-08-01T13:03:31.652Z,2.58
2022-08-01T13:05:59.700Z,4.22
2022-08-01T13:08:30.690Z,3.40
2022-08-01T13:13:40.349Z,4.15
2022-08-01T13:16:12.137Z,3.88
2022-08-01T13:18:39.914Z,2.53
2022-08-01T13:21:17.898Z,3.50
2022-08-01T13:24:11.982Z,3.30
2022-08-01T13:26:47.294Z,4.25
2022-08-01T13:29:16.722Z,4.53
2022-08-01T13:31:44.460Z,3.90
2022-08-01T13:34:11.318Z,2.83
2022-08-01T13:36:38.848Z,4.65
2022-08-01T13:39:25.713Z,4.70
2022-08-01T13:41:53.394Z,4.35
2022-08-01T13:44:20.220Z,3.45
2022-08-01T13:46:49.770Z,4.55
2022-08-01T13:51:46.988Z,6.38
2022-08-01T13:54:13.730Z,3.92
2022-08-01T13:56:40.477Z,5.05
2022-08-01T13:59:07.598Z,3.95
2022-08-01T14:01:35.087Z,4.30
2022-08-01T14:04:02.242Z,6.03
2022-08-01T14:06:28.941Z,4.05
2022-08-01T14:08:55.522Z,4.07
2022-08-01T14:11:22.166Z,4.57
2022-08-01T14:13:48.760Z,4.57
2022-08-01T14:16:17.265Z,5.00
2022-08-01T14:18:44.458Z,4.72
2022-08-01T14:21:11.959Z,3.72
2022-08-01T14:23:39.279Z,3.92
2022-08-01T14:26:11.461Z,4.70
2022-08-01T14:28:39.987Z,2.30
2022-08-01T14:31:09.819Z,3.47
2022-08-01T14:33:37.424Z,4.13
2022-08-01T14:36:20.556Z,4.72
2022-08-01T14:38:51.249Z,3.70
2022-08-01T14:41:17.856Z,6.55
2022-08-01T14:43:44.495Z,3.92
2022-08-01T14:46:12.352Z,4.40
2022-08-01T14:48:39.052Z,4.40
2022-08-01T14:51:08.218Z,3.50
2022-08-01T14:53:38.598Z,4.00
2022-08-01T14:56:06.039Z,3.10
2022-08-01T14:58:33.331Z,2.38
2022-08-01T15:01:00.096Z,6.90
2022-08-01T15:03:26.911Z,2.72
2022-08-01T15:05:53.609Z,3.28
2022-08-01T15:08:20.447Z,4.05
2022-08-01T15:10:47.105Z,3.95
2022-08-01T15:13:13.865Z,4.05
2022-08-01T15:15:40.482Z,3.53
2022-08-01T15:18:07.097Z,4.30
2022-08-01T15:20:34.145Z,3.25
2022-08-01T15:23:01.025Z,4.13
2022-08-01T15:25:41.443Z,3.88
2022-08-01T15:28:12.533Z,3.40
2022-08-01T15:30:39.752Z,4.00
2022-08-01T15:33:07.092Z,4.18
2022-08-01T15:35:33.761Z,3.92
2022-08-01T15:38:00.638Z,3.97
2022-08-01T15:40:29.498Z,3.63
2022-08-01T15:42:56.362Z,3.25
2022-08-01T15:45:46.512Z,3.30
2022-08-01T15:48:10.132Z,4.57
2022-08-01T15:50:39.275Z,3.97
2022-08-01T15:53:07.348Z,4.75
2022-08-01T15:55:40.385Z,4.75
2022-08-01T15:58:07.653Z,3.30
2022-08-01T16:00:39.069Z,4.63
2022-08-01T16:03:07.070Z,4.68
2022-08-01T16:05:36.337Z,5.53
2022-08-01T16:08:06.128Z,4.47
2022-08-01T16:10:32.776Z,5.10
2022-08-01T16:13:06.800Z,4.97
2022-08-01T16:15:36.539Z,5.28
2022-08-01T16:18:08.151Z,5.30
2022-08-01T16:20:35.735Z,5.63
2022-08-01T16:23:02.376Z,4.85
2022-08-01T16:25:29.150Z,5.03
2022-08-01T16:27:55.760Z,5.78
2022-08-01T16:30:22.389Z,6.97
2022-08-01T16:32:53.290Z,5.30
2022-08-01T16:35:35.191Z,4.80
2022-08-01T16:38:03.549Z,5.25
2022-08-01T16:40:30.173Z,4.97
2022-08-01T16:42:58.503Z,4.95
2022-08-01T16:45:25.737Z,4.97
2022-08-01T16:47:52.456Z,3.50
2022-08-01T16:50:28.119Z,3.97
2022-08-01T16:52:55.616Z,4.18
2022-08-01T16:55:23.559Z,3.88
2022-08-01T16:57:51.318Z,3.25
2022-08-01T17:00:21.022Z,4.55
2022-08-01T17:02:48.569Z,7.43
2022-08-01T17:05:15.359Z,4.47
2022-08-01T17:07:42.143Z,5.53
2022-08-01T17:10:09.550Z,4.00
2022-08-01T17:12:36.339Z,3.17
2022-08-01T17:15:03.312Z,4.10
2022-08-01T17:17:29.975Z,2.97
2022-08-01T17:19:56.568Z,3.80
2022-08-01T17:22:23.316Z,3.75
2022-08-01T17:24:51.206Z,4.35
2022-08-01T17:27:19.326Z,4.85
2022-08-01T17:29:46.505Z,3.65
2022-08-01T17:32:14.269Z,3.38
2022-08-01T17:34:42.415Z,3.50
2022-08-01T17:37:10.485Z,3.45
2022-08-01T17:39:39.545Z,2.47
2022-08-01T17:42:12.420Z,2.25
2022-08-01T17:44:39.373Z,3.92
2022-08-01T17:47:08.872Z,3.08
2022-08-01T17:52:23.110Z,3.25
2022-08-01T17:54:56.647Z,3.38
2022-08-01T17:57:23.338Z,4.20
2022-08-01T17:59:51.030Z,3.72
2022-08-01T18:02:17.757Z,4.30
2022-08-01T18:04:44.661Z,4.57
2022-08-01T18:07:12.426Z,2.58
2022-08-01T18:09:41.002Z,3.47
2022-08-01T18:12:13.164Z,4.15
2022-08-01T18:14:41.184Z,3.30
2022-08-01T18:17:11.630Z,3.25
2022-08-01T18:19:39.732Z,5.18
2022-08-01T18:22:19.506Z,4.28
2022-08-01T18:24:53.706Z,4.30
2022-08-01T18:27:20.499Z,3.13
2022-08-01T18:29:48.614Z,3.28
2022-08-01T18:32:15.729Z,2.55
2022-08-01T18:34:42.458Z,4.15
2022-08-01T18:37:12.237Z,2.58
2022-08-01T18:39:41.388Z,3.20
2022-08-01T18:42:10.493Z,3.78
2022-08-01T18:44:37.148Z,4.25
2022-08-01T18:47:04.963Z,5.07
2022-08-01T18:49:32.002Z,4.93
2022-08-01T18:51:59.224Z,3.42
2022-08-01T18:54:27.392Z,3.45
2022-08-01T18:56:54.043Z,3.92
2022-08-01T18:59:21.640Z,4.00
2022-08-01T19:01:48.342Z,4.25
2022-08-01T19:04:15.222Z,2.58
2022-08-01T19:06:41.956Z,3.35
2022-08-01T19:09:09.214Z,3.15
2022-08-01T19:11:36.465Z,4.03
2022-08-01T19:14:03.821Z,3.80
2022-08-01T19:16:31.575Z,2.95
2022-08-01T19:18:58.445Z,5.25
2022-08-01T19:21:25.401Z,4.53
2022-08-01T19:24:11.695Z,4.25
2022-08-01T19:26:40.437Z,5.07
2022-08-01T19:29:35.967Z,3.95
2022-08-01T19:32:09.067Z,3.05
2022-08-01T19:34:42.076Z,3.97
2022-08-01T19:37:09.378Z,5.25
2022-08-01T19:39:36.335Z,4.95
2022-08-01T19:42:04.213Z,2.97
2022-08-01T19:44:30.909Z,3.75
2022-08-01T19:46:57.598Z,2.72
2022-08-01T19:49:24.802Z,4.07
2022-08-01T19:51:55.362Z,3.25
2022-08-01T19:54:25.865Z,3.67
2022-08-01T19:56:53.972Z,3.28
2022-08-01T19:59:22.945Z,5.13
2022-08-01T20:01:54.693Z,3.95
2022-08-01T20:04:21.514Z,3.92
2022-08-01T20:06:48.553Z,4.13
2022-08-01T20:09:15.202Z,3.95
2022-08-01T20:11:45.322Z,4.25
2022-08-01T20:14:19.036Z,3.28
2022-08-01T20:16:46.268Z,4.43
2022-08-01T20:19:13.229Z,4.28
2022-08-01T20:21:45.211Z,4.45
2022-08-01T20:24:38.097Z,5.50
2022-08-01T20:27:08.054Z,4.50
2022-08-01T20:29:37.096Z,4.55
2022-08-01T20:32:03.882Z,4.00
2022-08-01T20:34:39.482Z,3.85
2022-08-01T20:37:12.834Z,4.35
2022-08-01T20:39:43.462Z,4.75
2022-08-01T20:42:11.591Z,6.53
2022-08-01T20:44:39.005Z,5.70
2022-08-01T20:47:05.713Z,4.72
2022-08-01T20:49:33.651Z,4.15
2022-08-01T20:52:11.281Z,6.68
2022-08-01T20:54:39.235Z,4.80
2022-08-01T20:57:12.359Z,5.32
2022-08-01T20:59:55.354Z,4.85
2022-08-01T21:02:38.204Z,8.15
2022-08-01T21:05:05.927Z,5.00
2022-08-01T21:07:59.937Z,4.78
2022-08-01T21:10:29.366Z,3.75
2022-08-01T21:12:58.797Z,4.78
2022-08-01T21:16:07.366Z,4.32
2022-08-01T21:18:37.950Z,4.70
2022-08-01T21:21:16.767Z,4.88
2022-08-01T21:23:58.372Z,4.97
2022-08-01T21:26:25.449Z,4.63
2022-08-01T21:28:54.622Z,4.63
2022-08-01T21:31:23.729Z,5.87
2022-08-01T21:34:02.650Z,5.43
2022-08-01T21:36:34.238Z,5.13
2022-08-01T21:39:02.486Z,4.60
2022-08-01T21:42:03.340Z,3.95
2022-08-01T21:44:18.899Z,5.32
2022-08-01T21:46:48.218Z,6.35
2022-08-01T21:49:15.067Z,4.82
2022-08-01T21:52:00.598Z,4.57
2022-08-01T21:54:45.500Z,4.88
2022-08-01T21:57:34.534Z,6.13
2022-08-01T22:00:25.191Z,6.20
2022-08-01T22:03:07.836Z,5.40
2022-08-01T22:05:49.484Z,4.50
2022-08-01T22:08:33.610Z,4.57
2022-08-01T22:11:04.970Z,4.28
2022-08-01T22:15:58.923Z,5.68
2022-08-01T22:18:27.506Z,4.80
2022-08-01T22:20:55.086Z,5.07
2022-08-01T22:23:23.004Z,4.75
2022-08-01T22:25:54.474Z,5.57
2022-08-01T22:28:22.759Z,5.78
2022-08-01T22:30:51.459Z,5.78
2022-08-01T22:33:18.550Z,7.20
2022-08-01T22:35:50.271Z,5.88
2022-08-01T22:38:19.445Z,5.65
2022-08-01T22:40:57.997Z,5.47
2022-08-01T22:43:46.436Z,5.03
2022-08-01T22:46:16.561Z,5.05
2022-08-01T22:48:51.340Z,6.68
2022-08-01T22:51:32.913Z,5.88
2022-08-01T22:53:59.482Z,8.88
2022-08-01T22:56:29.341Z,4.32
2022-08-01T22:59:01.894Z,7.20
2022-08-01T23:01:29.978Z,5.30
2022-08-01T23:03:59.279Z,5.03
2022-08-01T23:06:41.374Z,4.97
2022-08-01T23:09:09.554Z,6.40
2022-08-01T23:11:37.053Z,5.90
2022-08-01T23:14:04.178Z,7.93
2022-08-01T23:16:31.447Z,5.50
2022-08-01T23:18:58.760Z,5.43
2022-08-01T23:21:27.367Z,4.88
2022-08-01T23:23:55.221Z,6.15
2022-08-01T23:26:27.193Z,6.03
2022-08-01T23:28:54.575Z,6.65
2022-08-01T23:31:24.686Z,7.43
2022-08-01T23:34:08.097Z,4.95
2022-08-01T23:36:35.164Z,4.20
2022-08-01T23:39:01.870Z,4.25
2022-08-01T23:41:29.548Z,6.93
2022-08-01T23:44:02.273Z,6.00
2022-08-01T23:46:28.881Z,4.65
2022-08-01T23:48:55.626Z,6.75
2022-08-01T23:51:24.977Z,6.07
2022-08-01T23:53:52.086Z,7.30
2022-08-01T23:56:23.764Z,6.90
2022-08-01T23:58:52.293Z,6.18
